sensor_id;sensor_type;location;lat;lon;timestamp;pressure;altitude;pressure_sealevel;temperature;humidity
16525;BME280;8375;33.594;-117.718;2023-02-23T00:02:05;99901.13;;;11.05;52.39
16525;BME280;8375;33.594;-117.718;2023-02-23T00:04:34;99907.59;;;10.89;53.02
16525;BME280;8375;33.594;-117.718;2023-02-23T00:07:03;99902.22;;;10.81;53.18
16525;BME280;8375;33.594;-117.718;2023-02-23T00:09:33;99903.59;;;10.64;54.24
16525;BME280;8375;33.594;-117.718;2023-02-23T00:12:06;99913.31;;;10.50;54.20
16525;BME280;8375;33.594;-117.718;2023-02-23T00:14:36;99918.06;;;10.45;54.09
16525;BME280;8375;33.594;-117.718;2023-02-23T00:17:05;99908.22;;;10.49;51.91
16525;BME280;8375;33.594;-117.718;2023-02-23T00:19:39;99911.94;;;10.35;51.50
16525;BME280;8375;33.594;-117.718;2023-02-23T00:22:08;99920.06;;;10.30;51.30
16525;BME280;8375;33.594;-117.718;2023-02-23T00:24:38;99927.03;;;10.30;50.92
16525;BME280;8375;33.594;-117.718;2023-02-23T00:27:09;99932.22;;;10.30;51.61
16525;BME280;8375;33.594;-117.718;2023-02-23T00:29:43;99936.81;;;10.26;51.78
16525;BME280;8375;33.594;-117.718;2023-02-23T00:32:14;99927.31;;;10.15;52.71
16525;BME280;8375;33.594;-117.718;2023-02-23T00:34:45;99936.16;;;10.12;53.83
16525;BME280;8375;33.594;-117.718;2023-02-23T00:37:15;99938.19;;;10.09;53.83
16525;BME280;8375;33.594;-117.718;2023-02-23T00:39:44;99945.00;;;10.10;53.44
16525;BME280;8375;33.594;-117.718;2023-02-23T00:42:14;99936.84;;;10.15;53.85
16525;BME280;8375;33.594;-117.718;2023-02-23T00:44:43;99946.50;;;10.24;53.69
16525;BME280;8375;33.594;-117.718;2023-02-23T00:47:14;99952.06;;;10.19;52.89
16525;BME280;8375;33.594;-117.718;2023-02-23T00:49:43;99946.28;;;10.16;52.84
16525;BME280;8375;33.594;-117.718;2023-02-23T00:52:12;99957.13;;;10.21;51.90
16525;BME280;8375;33.594;-117.718;2023-02-23T00:54:41;99963.00;;;10.23;51.21
16525;BME280;8375;33.594;-117.718;2023-02-23T00:57:10;99955.59;;;10.18;50.97
16525;BME280;8375;33.594;-117.718;2023-02-23T00:59:40;99975.28;;;10.09;49.84
16525;BME280;8375;33.594;-117.718;2023-02-23T01:02:09;99975.56;;;9.95;50.19
16525;BME280;8375;33.594;-117.718;2023-02-23T01:04:38;99972.72;;;9.87;50.30
16525;BME280;8375;33.594;-117.718;2023-02-23T01:07:06;99962.59;;;9.83;50.70
16525;BME280;8375;33.594;-117.718;2023-02-23T01:09:38;99969.81;;;9.80;51.47
16525;BME280;8375;33.594;-117.718;2023-02-23T01:12:07;99966.13;;;9.71;51.54
16525;BME280;8375;33.594;-117.718;2023-02-23T01:14:36;99963.78;;;9.68;52.13
16525;BME280;8375;33.594;-117.718;2023-02-23T01:17:07;99962.28;;;9.65;52.39
16525;BME280;8375;33.594;-117.718;2023-02-23T01:19:36;99965.56;;;9.67;52.73
16525;BME280;8375;33.594;-117.718;2023-02-23T01:22:05;99969.69;;;9.59;52.62
16525;BME280;8375;33.594;-117.718;2023-02-23T01:24:33;99972.03;;;9.50;52.66
16525;BME280;8375;33.594;-117.718;2023-02-23T01:27:04;99970.13;;;9.52;52.51
16525;BME280;8375;33.594;-117.718;2023-02-23T01:29:32;99977.91;;;9.52;52.31
16525;BME280;8375;33.594;-117.718;2023-02-23T01:32:01;99980.25;;;9.44;51.41
16525;BME280;8375;33.594;-117.718;2023-02-23T01:34:32;99985.44;;;9.33;51.98
16525;BME280;8375;33.594;-117.718;2023-02-23T01:37:01;99986.59;;;9.29;51.72
16525;BME280;8375;33.594;-117.718;2023-02-23T01:39:31;99980.94;;;9.23;52.70
16525;BME280;8375;33.594;-117.718;2023-02-23T01:42:00;99977.63;;;9.21;52.94
16525;BME280;8375;33.594;-117.718;2023-02-23T01:47:52;99973.38;;;9.09;55.29
16525;BME280;8375;33.594;-117.718;2023-02-23T01:50:25;99971.72;;;9.08;55.47
16525;BME280;8375;33.594;-117.718;2023-02-23T01:52:54;99991.94;;;9.03;56.90
16525;BME280;8375;33.594;-117.718;2023-02-23T01:55:25;99997.34;;;9.00;57.32
16525;BME280;8375;33.594;-117.718;2023-02-23T01:58:03;99988.16;;;8.95;57.55
16525;BME280;8375;33.594;-117.718;2023-02-23T02:00:33;99991.59;;;8.96;57.73
16525;BME280;8375;33.594;-117.718;2023-02-23T02:03:07;99993.47;;;8.94;58.17
16525;BME280;8375;33.594;-117.718;2023-02-23T02:05:42;99996.28;;;8.91;58.29
16525;BME280;8375;33.594;-117.718;2023-02-23T02:08:12;99990.38;;;8.89;58.26
16525;BME280;8375;33.594;-117.718;2023-02-23T02:10:42;99996.94;;;8.82;58.43
16525;BME280;8375;33.594;-117.718;2023-02-23T02:13:19;100005.66;;;8.80;58.28
16525;BME280;8375;33.594;-117.718;2023-02-23T02:22:27;100010.16;;;8.65;57.98
16525;BME280;8375;33.594;-117.718;2023-02-23T02:28:23;100004.63;;;8.59;57.36
16525;BME280;8375;33.594;-117.718;2023-02-23T02:31:18;100011.16;;;8.51;56.23
16525;BME280;8375;33.594;-117.718;2023-02-23T02:34:24;100019.41;;;8.44;55.63
16525;BME280;8375;33.594;-117.718;2023-02-23T02:37:27;100028.97;;;8.43;56.19
16525;BME280;8375;33.594;-117.718;2023-02-23T02:40:06;100033.28;;;8.43;56.47
16525;BME280;8375;33.594;-117.718;2023-02-23T02:43:09;100029.28;;;8.39;56.46
16525;BME280;8375;33.594;-117.718;2023-02-23T02:45:48;100037.38;;;8.34;56.52
16525;BME280;8375;33.594;-117.718;2023-02-23T02:48:27;100045.44;;;8.29;56.74
16525;BME280;8375;33.594;-117.718;2023-02-23T02:51:05;100048.66;;;8.20;57.07
16525;BME280;8375;33.594;-117.718;2023-02-23T02:53:45;100058.06;;;8.21;57.69
16525;BME280;8375;33.594;-117.718;2023-02-23T02:56:17;100054.56;;;8.22;58.04
16525;BME280;8375;33.594;-117.718;2023-02-23T02:58:47;100058.78;;;8.23;57.93
16525;BME280;8375;33.594;-117.718;2023-02-23T03:01:17;100052.09;;;8.20;58.48
16525;BME280;8375;33.594;-117.718;2023-02-23T03:04:18;100045.34;;;8.18;58.41
16525;BME280;8375;33.594;-117.718;2023-02-23T03:07:09;100057.47;;;8.17;59.07
16525;BME280;8375;33.594;-117.718;2023-02-23T03:10:02;100063.56;;;8.16;59.25
16525;BME280;8375;33.594;-117.718;2023-02-23T03:12:57;100068.31;;;8.22;59.50
16525;BME280;8375;33.594;-117.718;2023-02-23T03:15:57;100071.72;;;8.23;60.04
16525;BME280;8375;33.594;-117.718;2023-02-23T03:18:58;100083.28;;;8.30;60.71
16525;BME280;8375;33.594;-117.718;2023-02-23T03:21:51;100083.00;;;8.35;60.29
16525;BME280;8375;33.594;-117.718;2023-02-23T03:24:43;100077.81;;;8.35;60.34
16525;BME280;8375;33.594;-117.718;2023-02-23T03:27:41;100082.16;;;8.34;60.54
16525;BME280;8375;33.594;-117.718;2023-02-23T03:30:38;100078.25;;;8.29;61.68
16525;BME280;8375;33.594;-117.718;2023-02-23T03:33:33;100083.41;;;8.29;62.27
16525;BME280;8375;33.594;-117.718;2023-02-23T03:36:25;100077.19;;;8.31;63.17
16525;BME280;8375;33.594;-117.718;2023-02-23T03:39:17;100083.19;;;8.32;62.54
16525;BME280;8375;33.594;-117.718;2023-02-23T03:42:09;100078.34;;;8.27;63.08
16525;BME280;8375;33.594;-117.718;2023-02-23T03:45:01;100078.16;;;8.17;64.07
16525;BME280;8375;33.594;-117.718;2023-02-23T03:47:49;100079.69;;;8.20;64.86
16525;BME280;8375;33.594;-117.718;2023-02-23T03:50:38;100084.66;;;8.23;64.78
16525;BME280;8375;33.594;-117.718;2023-02-23T03:53:28;100082.06;;;8.23;64.49
16525;BME280;8375;33.594;-117.718;2023-02-23T03:56:18;100087.66;;;8.30;64.07
16525;BME280;8375;33.594;-117.718;2023-02-23T03:59:06;100081.34;;;8.34;63.89
16525;BME280;8375;33.594;-117.718;2023-02-23T04:01:55;100084.63;;;8.36;63.59
16525;BME280;8375;33.594;-117.718;2023-02-23T04:04:42;100072.53;;;8.36;62.88
16525;BME280;8375;33.594;-117.718;2023-02-23T04:07:30;100078.63;;;8.35;63.42
16525;BME280;8375;33.594;-117.718;2023-02-23T04:10:18;100079.47;;;8.36;62.07
16525;BME280;8375;33.594;-117.718;2023-02-23T04:13:06;100076.88;;;8.36;61.85
16525;BME280;8375;33.594;-117.718;2023-02-23T04:15:48;100082.28;;;8.33;63.61
16525;BME280;8375;33.594;-117.718;2023-02-23T04:18:22;100077.91;;;8.33;62.85
16525;BME280;8375;33.594;-117.718;2023-02-23T04:20:52;100086.50;;;8.34;62.92
16525;BME280;8375;33.594;-117.718;2023-02-23T04:23:22;100085.38;;;8.38;63.21
16525;BME280;8375;33.594;-117.718;2023-02-23T04:25:51;100079.47;;;8.36;63.00
16525;BME280;8375;33.594;-117.718;2023-02-23T04:28:22;100088.38;;;8.32;63.00
16525;BME280;8375;33.594;-117.718;2023-02-23T04:30:51;100093.84;;;8.27;63.09
16525;BME280;8375;33.594;-117.718;2023-02-23T04:33:22;100106.28;;;8.22;63.72
16525;BME280;8375;33.594;-117.718;2023-02-23T04:35:52;100109.78;;;8.21;64.11
16525;BME280;8375;33.594;-117.718;2023-02-23T04:38:21;100109.28;;;8.16;64.26
16525;BME280;8375;33.594;-117.718;2023-02-23T04:40:50;100109.19;;;8.17;64.75
16525;BME280;8375;33.594;-117.718;2023-02-23T04:43:19;100108.47;;;8.15;64.94
16525;BME280;8375;33.594;-117.718;2023-02-23T04:45:47;100117.03;;;8.16;65.31
16525;BME280;8375;33.594;-117.718;2023-02-23T04:48:16;100129.75;;;8.19;65.45
16525;BME280;8375;33.594;-117.718;2023-02-23T04:50:50;100130.88;;;8.15;65.88
16525;BME280;8375;33.594;-117.718;2023-02-23T04:53:19;100129.25;;;8.14;65.88
16525;BME280;8375;33.594;-117.718;2023-02-23T04:55:48;100136.38;;;8.10;66.23
16525;BME280;8375;33.594;-117.718;2023-02-23T04:58:17;100129.78;;;8.06;66.29
16525;BME280;8375;33.594;-117.718;2023-02-23T05:00:46;100140.19;;;8.04;66.25
16525;BME280;8375;33.594;-117.718;2023-02-23T05:03:15;100141.13;;;8.03;66.19
16525;BME280;8375;33.594;-117.718;2023-02-23T05:05:46;100146.50;;;8.00;66.04
16525;BME280;8375;33.594;-117.718;2023-02-23T05:08:14;100149.22;;;7.99;66.04
16525;BME280;8375;33.594;-117.718;2023-02-23T05:10:45;100146.91;;;7.94;66.51
16525;BME280;8375;33.594;-117.718;2023-02-23T05:13:14;100150.22;;;7.96;66.65
16525;BME280;8375;33.594;-117.718;2023-02-23T05:15:42;100146.72;;;7.97;67.04
16525;BME280;8375;33.594;-117.718;2023-02-23T05:18:11;100146.91;;;7.94;67.14
16525;BME280;8375;33.594;-117.718;2023-02-23T05:20:42;100154.66;;;7.94;67.41
16525;BME280;8375;33.594;-117.718;2023-02-23T05:23:13;100157.06;;;7.97;67.40
16525;BME280;8375;33.594;-117.718;2023-02-23T05:25:42;100162.22;;;7.97;67.07
16525;BME280;8375;33.594;-117.718;2023-02-23T05:28:10;100157.91;;;7.98;67.56
16525;BME280;8375;33.594;-117.718;2023-02-23T05:30:39;100164.94;;;7.96;66.22
16525;BME280;8375;33.594;-117.718;2023-02-23T05:33:08;100167.41;;;7.97;66.00
16525;BME280;8375;33.594;-117.718;2023-02-23T05:35:39;100157.47;;;7.91;66.05
16525;BME280;8375;33.594;-117.718;2023-02-23T05:38:08;100166.88;;;7.92;66.30
16525;BME280;8375;33.594;-117.718;2023-02-23T05:40:38;100166.03;;;7.91;66.62
16525;BME280;8375;33.594;-117.718;2023-02-23T05:43:07;100169.44;;;7.92;66.53
16525;BME280;8375;33.594;-117.718;2023-02-23T05:45:39;100174.72;;;7.90;66.90
16525;BME280;8375;33.594;-117.718;2023-02-23T05:48:08;100179.06;;;7.90;67.48
16525;BME280;8375;33.594;-117.718;2023-02-23T05:50:37;100179.88;;;7.90;67.36
16525;BME280;8375;33.594;-117.718;2023-02-23T05:53:06;100182.19;;;7.95;68.21
16525;BME280;8375;33.594;-117.718;2023-02-23T05:55:35;100181.03;;;7.99;68.05
16525;BME280;8375;33.594;-117.718;2023-02-23T05:58:06;100187.88;;;8.00;67.07
16525;BME280;8375;33.594;-117.718;2023-02-23T06:00:34;100185.00;;;8.05;67.25
16525;BME280;8375;33.594;-117.718;2023-02-23T06:03:03;100178.16;;;8.04;66.24
16525;BME280;8375;33.594;-117.718;2023-02-23T06:05:32;100187.47;;;8.06;65.92
16525;BME280;8375;33.594;-117.718;2023-02-23T06:08:00;100185.59;;;8.08;67.55
16525;BME280;8375;33.594;-117.718;2023-02-23T06:10:29;100191.81;;;8.06;67.02
16525;BME280;8375;33.594;-117.718;2023-02-23T06:12:58;100202.38;;;8.03;67.01
16525;BME280;8375;33.594;-117.718;2023-02-23T06:15:28;100203.81;;;8.07;66.57
16525;BME280;8375;33.594;-117.718;2023-02-23T06:17:57;100207.34;;;8.06;67.05
16525;BME280;8375;33.594;-117.718;2023-02-23T06:20:26;100200.19;;;8.10;67.13
16525;BME280;8375;33.594;-117.718;2023-02-23T06:22:55;100187.16;;;8.11;66.56
16525;BME280;8375;33.594;-117.718;2023-02-23T06:25:23;100186.13;;;8.14;67.13
16525;BME280;8375;33.594;-117.718;2023-02-23T06:27:52;100187.91;;;8.13;67.05
16525;BME280;8375;33.594;-117.718;2023-02-23T06:30:21;100184.25;;;8.16;66.88
16525;BME280;8375;33.594;-117.718;2023-02-23T06:32:51;100187.06;;;8.13;66.68
16525;BME280;8375;33.594;-117.718;2023-02-23T06:35:20;100185.50;;;8.10;66.48
16525;BME280;8375;33.594;-117.718;2023-02-23T06:37:49;100184.16;;;8.04;66.98
16525;BME280;8375;33.594;-117.718;2023-02-23T06:40:18;100183.13;;;8.07;67.26
16525;BME280;8375;33.594;-117.718;2023-02-23T06:42:47;100191.50;;;8.11;67.87
16525;BME280;8375;33.594;-117.718;2023-02-23T06:45:16;100182.81;;;8.12;66.76
16525;BME280;8375;33.594;-117.718;2023-02-23T06:47:45;100181.06;;;8.12;66.79
16525;BME280;8375;33.594;-117.718;2023-02-23T06:50:16;100183.66;;;8.12;67.03
16525;BME280;8375;33.594;-117.718;2023-02-23T06:52:45;100182.72;;;8.13;67.46
16525;BME280;8375;33.594;-117.718;2023-02-23T06:55:14;100192.94;;;8.15;66.71
16525;BME280;8375;33.594;-117.718;2023-02-23T06:57:43;100190.56;;;8.12;66.54
16525;BME280;8375;33.594;-117.718;2023-02-23T07:00:13;100195.75;;;8.12;66.18
16525;BME280;8375;33.594;-117.718;2023-02-23T07:02:43;100190.88;;;8.07;66.08
16525;BME280;8375;33.594;-117.718;2023-02-23T07:05:12;100197.50;;;8.11;67.12
16525;BME280;8375;33.594;-117.718;2023-02-23T07:07:42;100198.31;;;8.12;66.07
16525;BME280;8375;33.594;-117.718;2023-02-23T07:10:11;100207.00;;;8.11;66.03
16525;BME280;8375;33.594;-117.718;2023-02-23T07:12:40;100208.88;;;8.08;66.26
16525;BME280;8375;33.594;-117.718;2023-02-23T07:15:10;100217.34;;;8.11;65.55
16525;BME280;8375;33.594;-117.718;2023-02-23T07:17:38;100213.84;;;8.12;64.30
16525;BME280;8375;33.594;-117.718;2023-02-23T07:20:08;100213.84;;;8.12;65.08
16525;BME280;8375;33.594;-117.718;2023-02-23T07:22:37;100226.78;;;8.12;66.61
16525;BME280;8375;33.594;-117.718;2023-02-23T07:25:08;100223.66;;;8.06;66.83
16525;BME280;8375;33.594;-117.718;2023-02-23T07:27:38;100220.34;;;8.04;67.87
16525;BME280;8375;33.594;-117.718;2023-02-23T07:30:09;100231.94;;;7.99;68.44
16525;BME280;8375;33.594;-117.718;2023-02-23T07:32:38;100224.47;;;7.94;68.82
16525;BME280;8375;33.594;-117.718;2023-02-23T07:35:07;100235.72;;;7.93;69.65
16525;BME280;8375;33.594;-117.718;2023-02-23T07:37:36;100238.03;;;7.98;70.08
16525;BME280;8375;33.594;-117.718;2023-02-23T07:40:08;100231.94;;;7.99;71.43
16525;BME280;8375;33.594;-117.718;2023-02-23T07:42:37;100237.72;;;8.02;71.17
16525;BME280;8375;33.594;-117.718;2023-02-23T07:45:07;100238.03;;;7.98;72.47
16525;BME280;8375;33.594;-117.718;2023-02-23T07:47:36;100237.31;;;7.96;72.45
16525;BME280;8375;33.594;-117.718;2023-02-23T07:50:06;100240.63;;;7.98;72.38
16525;BME280;8375;33.594;-117.718;2023-02-23T07:52:35;100244.13;;;7.97;72.29
16525;BME280;8375;33.594;-117.718;2023-02-23T07:55:07;100239.78;;;7.97;73.01
16525;BME280;8375;33.594;-117.718;2023-02-23T07:57:35;100241.44;;;7.98;72.97
16525;BME280;8375;33.594;-117.718;2023-02-23T08:00:06;100238.97;;;7.97;71.31
16525;BME280;8375;33.594;-117.718;2023-02-23T08:02:36;100238.13;;;7.96;71.22
16525;BME280;8375;33.594;-117.718;2023-02-23T08:05:05;100234.16;;;7.90;70.89
16525;BME280;8375;33.594;-117.718;2023-02-23T08:07:35;100242.47;;;7.96;72.75
16525;BME280;8375;33.594;-117.718;2023-02-23T08:10:06;100250.22;;;7.96;71.88
16525;BME280;8375;33.594;-117.718;2023-02-23T08:12:35;100249.31;;;7.97;71.92
16525;BME280;8375;33.594;-117.718;2023-02-23T08:15:04;100252.91;;;7.94;72.71
16525;BME280;8375;33.594;-117.718;2023-02-23T08:17:33;100248.53;;;7.95;71.82
16525;BME280;8375;33.594;-117.718;2023-02-23T08:20:03;100247.94;;;7.91;71.78
16525;BME280;8375;33.594;-117.718;2023-02-23T08:22:31;100250.31;;;7.94;74.05
16525;BME280;8375;33.594;-117.718;2023-02-23T08:25:00;100254.16;;;8.01;74.55
16525;BME280;8375;33.594;-117.718;2023-02-23T08:27:34;100243.81;;;8.01;72.81
16525;BME280;8375;33.594;-117.718;2023-02-23T08:30:05;100249.09;;;8.00;73.31
16525;BME280;8375;33.594;-117.718;2023-02-23T08:32:35;100250.84;;;7.99;74.29
16525;BME280;8375;33.594;-117.718;2023-02-23T08:35:04;100240.78;;;7.95;74.06
16525;BME280;8375;33.594;-117.718;2023-02-23T08:37:33;100238.53;;;7.90;73.53
16525;BME280;8375;33.594;-117.718;2023-02-23T08:40:02;100243.69;;;7.90;74.05
16525;BME280;8375;33.594;-117.718;2023-02-23T08:42:30;100245.94;;;7.82;73.78
16525;BME280;8375;33.594;-117.718;2023-02-23T08:45:01;100246.13;;;7.78;73.93
16525;BME280;8375;33.594;-117.718;2023-02-23T08:47:29;100245.41;;;7.76;74.06
16525;BME280;8375;33.594;-117.718;2023-02-23T08:49:59;100239.78;;;7.70;73.65
16525;BME280;8375;33.594;-117.718;2023-02-23T08:52:28;100241.56;;;7.69;74.69
16525;BME280;8375;33.594;-117.718;2023-02-23T08:54:57;100240.63;;;7.70;74.86
16525;BME280;8375;33.594;-117.718;2023-02-23T08:57:25;100248.91;;;7.75;75.93
16525;BME280;8375;33.594;-117.718;2023-02-23T08:59:54;100243.34;;;7.82;76.02
16525;BME280;8375;33.594;-117.718;2023-02-23T09:02:24;100243.56;;;7.78;75.19
16525;BME280;8375;33.594;-117.718;2023-02-23T09:04:53;100236.00;;;7.75;74.93
16525;BME280;8375;33.594;-117.718;2023-02-23T09:07:22;100243.44;;;7.80;76.32
16525;BME280;8375;33.594;-117.718;2023-02-23T09:09:55;100239.72;;;7.84;76.48
16525;BME280;8375;33.594;-117.718;2023-02-23T09:12:24;100235.59;;;7.82;75.78
16525;BME280;8375;33.594;-117.718;2023-02-23T09:14:52;100233.22;;;7.78;76.63
16525;BME280;8375;33.594;-117.718;2023-02-23T09:17:23;100236.00;;;7.75;76.57
16525;BME280;8375;33.594;-117.718;2023-02-23T09:19:52;100235.06;;;7.76;77.26
16525;BME280;8375;33.594;-117.718;2023-02-23T09:22:20;100230.72;;;7.77;77.77
16525;BME280;8375;33.594;-117.718;2023-02-23T09:24:49;100228.25;;;7.75;78.13
16525;BME280;8375;33.594;-117.718;2023-02-23T09:27:18;100235.06;;;7.76;78.05
16525;BME280;8375;33.594;-117.718;2023-02-23T09:29:47;100234.03;;;7.79;78.74
16525;BME280;8375;33.594;-117.718;2023-02-23T09:32:15;100236.81;;;7.76;77.69
16525;BME280;8375;33.594;-117.718;2023-02-23T09:34:46;100242.50;;;7.68;79.20
16525;BME280;8375;33.594;-117.718;2023-02-23T09:37:15;100234.19;;;7.63;79.23
16525;BME280;8375;33.594;-117.718;2023-02-23T09:39:44;100236.78;;;7.63;80.08
16525;BME280;8375;33.594;-117.718;2023-02-23T09:42:27;100231.78;;;7.87;82.15
16525;BME280;8375;33.594;-117.718;2023-02-23T09:45:09;100229.50;;;7.83;80.09
16525;BME280;8375;33.594;-117.718;2023-02-23T09:47:48;100233.41;;;8.16;82.74
16525;BME280;8375;33.594;-117.718;2023-02-23T09:50:23;100240.50;;;7.99;79.38
16525;BME280;8375;33.594;-117.718;2023-02-23T09:52:55;100227.56;;;7.99;81.80
16525;BME280;8375;33.594;-117.718;2023-02-23T09:55:26;100233.38;;;8.03;82.06
16525;BME280;8375;33.594;-117.718;2023-02-23T09:57:59;100230.53;;;8.20;81.73
16525;BME280;8375;33.594;-117.718;2023-02-23T10:00:30;100229.78;;;8.18;82.62
16525;BME280;8375;33.594;-117.718;2023-02-23T10:03:12;100229.59;;;8.34;84.76
16525;BME280;8375;33.594;-117.718;2023-02-23T10:05:49;100227.19;;;8.31;82.48
16525;BME280;8375;33.594;-117.718;2023-02-23T10:08:27;100214.78;;;7.98;82.39
16525;BME280;8375;33.594;-117.718;2023-02-23T10:11:05;100203.47;;;7.86;83.14
16525;BME280;8375;33.594;-117.718;2023-02-23T10:13:44;100196.78;;;7.69;81.18
16525;BME280;8375;33.594;-117.718;2023-02-23T10:16:21;100195.16;;;7.40;82.45
16525;BME280;8375;33.594;-117.718;2023-02-23T10:18:54;100201.53;;;7.62;89.68
16525;BME280;8375;33.594;-117.718;2023-02-23T10:21:32;100197.44;;;7.72;91.42
16525;BME280;8375;33.594;-117.718;2023-02-23T10:24:06;100192.16;;;7.74;89.43
16525;BME280;8375;33.594;-117.718;2023-02-23T10:26:40;100194.41;;;7.66;88.15
16525;BME280;8375;33.594;-117.718;2023-02-23T10:29:20;100189.44;;;7.62;91.01
16525;BME280;8375;33.594;-117.718;2023-02-23T10:31:55;100180.09;;;7.47;91.90
16525;BME280;8375;33.594;-117.718;2023-02-23T10:34:26;100176.34;;;7.38;92.61
16525;BME280;8375;33.594;-117.718;2023-02-23T10:37:00;100183.66;;;7.31;92.82
16525;BME280;8375;33.594;-117.718;2023-02-23T10:39:30;100180.25;;;7.31;93.43
16525;BME280;8375;33.594;-117.718;2023-02-23T10:42:01;100183.75;;;7.30;94.67
16525;BME280;8375;33.594;-117.718;2023-02-23T10:44:31;100182.66;;;7.34;95.62
16525;BME280;8375;33.594;-117.718;2023-02-23T10:47:02;100176.75;;;7.32;96.00
16525;BME280;8375;33.594;-117.718;2023-02-23T10:49:39;100177.97;;;7.54;98.04
16525;BME280;8375;33.594;-117.718;2023-02-23T10:52:14;100174.09;;;7.46;97.11
16525;BME280;8375;33.594;-117.718;2023-02-23T10:54:45;100164.44;;;7.36;96.95
16525;BME280;8375;33.594;-117.718;2023-02-23T10:57:25;100170.84;;;7.30;96.48
16525;BME280;8375;33.594;-117.718;2023-02-23T11:00:23;100166.50;;;7.03;95.77
16525;BME280;8375;33.594;-117.718;2023-02-23T11:02:57;100163.91;;;7.03;96.74
16525;BME280;8375;33.594;-117.718;2023-02-23T11:05:35;100166.50;;;7.03;98.01
16525;BME280;8375;33.594;-117.718;2023-02-23T11:08:21;100172.44;;;7.18;99.88
16525;BME280;8375;33.594;-117.718;2023-02-23T11:10:59;100164.66;;;7.32;100.00
16525;BME280;8375;33.594;-117.718;2023-02-23T11:13:32;100165.50;;;7.33;99.76
16525;BME280;8375;33.594;-117.718;2023-02-23T11:16:02;100166.63;;;7.29;100.00
16525;BME280;8375;33.594;-117.718;2023-02-23T11:18:33;100166.06;;;7.24;100.00
16525;BME280;8375;33.594;-117.718;2023-02-23T11:21:01;100167.38;;;7.16;100.00
16525;BME280;8375;33.594;-117.718;2023-02-23T11:23:34;100166.31;;;7.06;100.00
16525;BME280;8375;33.594;-117.718;2023-02-23T11:26:18;100165.63;;;6.89;100.00
16525;BME280;8375;33.594;-117.718;2023-02-23T11:28:51;100163.94;;;6.88;100.00
16525;BME280;8375;33.594;-117.718;2023-02-23T11:31:22;100169.75;;;6.78;97.45
16525;BME280;8375;33.594;-117.718;2023-02-23T11:33:55;100170.50;;;6.65;97.43
16525;BME280;8375;33.594;-117.718;2023-02-23T11:36:29;100163.25;;;6.72;98.21
16525;BME280;8375;33.594;-117.718;2023-02-23T11:39:05;100167.69;;;6.55;96.39
16525;BME280;8375;33.594;-117.718;2023-02-23T11:41:35;100167.13;;;6.65;96.44
16525;BME280;8375;33.594;-117.718;2023-02-23T11:44:03;100166.75;;;6.56;94.34
16525;BME280;8375;33.594;-117.718;2023-02-23T11:46:35;100175.06;;;6.47;95.37
16525;BME280;8375;33.594;-117.718;2023-02-23T11:49:06;100167.19;;;6.49;95.15
16525;BME280;8375;33.594;-117.718;2023-02-23T11:51:37;100175.69;;;6.51;96.68
16525;BME280;8375;33.594;-117.718;2023-02-23T11:54:20;100179.28;;;6.63;97.12
16525;BME280;8375;33.594;-117.718;2023-02-23T11:56:50;100185.34;;;6.90;99.10
16525;BME280;8375;33.594;-117.718;2023-02-23T11:59:26;100192.91;;;7.21;99.01
16525;BME280;8375;33.594;-117.718;2023-02-23T12:02:01;100190.59;;;7.31;96.37
16525;BME280;8375;33.594;-117.718;2023-02-23T12:04:33;100194.41;;;7.11;95.46
16525;BME280;8375;33.594;-117.718;2023-02-23T12:07:36;100200.28;;;6.85;94.92
16525;BME280;8375;33.594;-117.718;2023-02-23T12:10:16;100195.66;;;6.76;94.66
16525;BME280;8375;33.594;-117.718;2023-02-23T12:13:02;100195.28;;;6.97;95.79
16525;BME280;8375;33.594;-117.718;2023-02-23T12:15:41;100199.25;;;6.88;96.72
16525;BME280;8375;33.594;-117.718;2023-02-23T12:18:28;100195.72;;;6.89;97.54
16525;BME280;8375;33.594;-117.718;2023-02-23T12:21:08;100193.06;;;6.90;99.75
16525;BME280;8375;33.594;-117.718;2023-02-23T12:23:41;100196.47;;;6.91;100.00
16525;BME280;8375;33.594;-117.718;2023-02-23T12:26:15;100189.97;;;6.71;100.00
16525;BME280;8375;33.594;-117.718;2023-02-23T12:28:52;100189.13;;;6.70;100.00
16525;BME280;8375;33.594;-117.718;2023-02-23T12:31:28;100197.34;;;6.77;100.00
16525;BME280;8375;33.594;-117.718;2023-02-23T12:34:08;100199.34;;;6.72;99.99
16525;BME280;8375;33.594;-117.718;2023-02-23T12:36:58;100193.72;;;6.36;98.69
16525;BME280;8375;33.594;-117.718;2023-02-23T12:39:35;100198.44;;;6.44;100.00
16525;BME280;8375;33.594;-117.718;2023-02-23T12:42:14;100210.13;;;6.64;100.00
16525;BME280;8375;33.594;-117.718;2023-02-23T12:44:50;100208.09;;;6.55;100.00
16525;BME280;8375;33.594;-117.718;2023-02-23T12:47:25;100210.31;;;6.46;100.00
16525;BME280;8375;33.594;-117.718;2023-02-23T12:49:58;100206.25;;;6.42;100.00
16525;BME280;8375;33.594;-117.718;2023-02-23T12:52:36;100212.44;;;6.40;100.00
16525;BME280;8375;33.594;-117.718;2023-02-23T12:55:09;100212.06;;;6.31;100.00
16525;BME280;8375;33.594;-117.718;2023-02-23T12:57:46;100209.00;;;6.25;100.00
16525;BME280;8375;33.594;-117.718;2023-02-23T13:00:44;100212.25;;;6.28;100.00
16525;BME280;8375;33.594;-117.718;2023-02-23T13:06:28;100212.66;;;6.21;100.00
16525;BME280;8375;33.594;-117.718;2023-02-23T13:09:22;100217.41;;;6.28;100.00
16525;BME280;8375;33.594;-117.718;2023-02-23T13:12:05;100218.94;;;6.31;100.00
16525;BME280;8375;33.594;-117.718;2023-02-23T13:14:48;100216.91;;;6.22;100.00
16525;BME280;8375;33.594;-117.718;2023-02-23T13:17:30;100211.69;;;6.38;100.00
16525;BME280;8375;33.594;-117.718;2023-02-23T13:20:02;100222.09;;;6.51;100.00
16525;BME280;8375;33.594;-117.718;2023-02-23T13:22:41;100227.38;;;6.64;100.00
16525;BME280;8375;33.594;-117.718;2023-02-23T13:25:22;100221.09;;;6.82;100.00
16525;BME280;8375;33.594;-117.718;2023-02-23T13:27:55;100224.09;;;7.03;100.00
16525;BME280;8375;33.594;-117.718;2023-02-23T13:30:29;100212.50;;;6.82;100.00
16525;BME280;8375;33.594;-117.718;2023-02-23T13:33:16;100218.16;;;6.59;100.00